< < Back
Terminal Aerodrome Forecast


Current Version              Previous Versions:   1  2  3  4  5  6  7  8  9  

Terminal Aerodrome Forecast

926
FTUS42 KGSP 060231 AAA
TAFCLT
TAF AMD
KCLT 060231Z 0603/0624 33008KT P6SM -SHRA OVC040
     FM060500 33007KT P6SM VCSH SCT025 OVC035
     FM061400 34013G20KT P6SM BKN045 PROB30 0616/0622 -SHRA OVC040=

Latest METAR

554
SAUS70 KWBC 060300 RRE
MTRCLT
METAR KCLT 060252Z 31004KT 9SM RA OVC043 09/07 A2976 RMK AO2 SLP074
P0003 60007 T00890072 51014


USA.gov is the U.S. government's official web portal to all federal, state and local government web resources and services.